sensor_id;sensor_type;location;lat;lon;timestamp;pressure;altitude;pressure_sealevel;temperature;humidity
70343;BME280;57767;42.068;24.752;2023-05-12T00:00:17;99351.22;;;9.60;78.09
70343;BME280;57767;42.068;24.752;2023-05-12T00:01:19;99353.03;;;9.60;77.73
70343;BME280;57767;42.068;24.752;2023-05-12T00:02:22;99346.03;;;9.52;77.96
70343;BME280;57767;42.068;24.752;2023-05-12T00:03:24;99349.38;;;9.61;77.28
70343;BME280;57767;42.068;24.752;2023-05-12T00:04:26;99358.34;;;9.66;77.52
70343;BME280;57767;42.068;24.752;2023-05-12T00:05:27;99358.13;;;9.61;77.49
70343;BME280;57767;42.068;24.752;2023-05-12T00:06:29;99351.63;;;9.64;77.28
70343;BME280;57767;42.068;24.752;2023-05-12T00:07:31;99355.72;;;9.66;77.68
70343;BME280;57767;42.068;24.752;2023-05-12T00:08:33;99357.97;;;9.69;77.12
70343;BME280;57767;42.068;24.752;2023-05-12T00:09:35;99363.44;;;9.68;77.38
70343;BME280;57767;42.068;24.752;2023-05-12T00:10:37;99359.97;;;9.67;76.79
70343;BME280;57767;42.068;24.752;2023-05-12T00:11:39;99352.88;;;9.68;76.66
70343;BME280;57767;42.068;24.752;2023-05-12T00:12:40;99359.41;;;9.72;77.04
70343;BME280;57767;42.068;24.752;2023-05-12T00:13:42;99357.53;;;9.66;77.44
70343;BME280;57767;42.068;24.752;2023-05-12T00:14:44;99362.97;;;9.64;77.88
70343;BME280;57767;42.068;24.752;2023-05-12T00:15:46;99357.09;;;9.62;77.09
70343;BME280;57767;42.068;24.752;2023-05-12T00:16:48;99364.63;;;9.65;77.50
70343;BME280;57767;42.068;24.752;2023-05-12T00:17:52;99356.84;;;9.57;76.92
70343;BME280;57767;42.068;24.752;2023-05-12T00:18:54;99358.94;;;9.62;77.83
70343;BME280;57767;42.068;24.752;2023-05-12T00:19:56;99347.75;;;9.60;76.97
70343;BME280;57767;42.068;24.752;2023-05-12T00:20:57;99355.84;;;9.58;76.78
70343;BME280;57767;42.068;24.752;2023-05-12T00:21:59;99351.84;;;9.62;77.08
70343;BME280;57767;42.068;24.752;2023-05-12T00:23:01;99354.84;;;9.59;77.46
70343;BME280;57767;42.068;24.752;2023-05-12T00:24:03;99355.03;;;9.58;77.27
70343;BME280;57767;42.068;24.752;2023-05-12T00:25:05;99355.66;;;9.60;77.19
70343;BME280;57767;42.068;24.752;2023-05-12T00:26:07;99350.00;;;9.63;77.09
70343;BME280;57767;42.068;24.752;2023-05-12T00:27:09;99362.75;;;9.59;76.90
70343;BME280;57767;42.068;24.752;2023-05-12T00:28:11;99354.41;;;9.56;77.38
70343;BME280;57767;42.068;24.752;2023-05-12T00:29:12;99361.50;;;9.55;77.27
70343;BME280;57767;42.068;24.752;2023-05-12T00:30:14;99355.22;;;9.56;77.34
70343;BME280;57767;42.068;24.752;2023-05-12T00:31:16;99349.69;;;9.51;77.10
70343;BME280;57767;42.068;24.752;2023-05-12T00:32:18;99347.00;;;9.45;77.04
70343;BME280;57767;42.068;24.752;2023-05-12T00:33:19;99355.78;;;9.52;77.55
70343;BME280;57767;42.068;24.752;2023-05-12T00:34:21;99356.22;;;9.55;77.45
70343;BME280;57767;42.068;24.752;2023-05-12T00:35:23;99357.41;;;9.53;77.02
70343;BME280;57767;42.068;24.752;2023-05-12T00:36:25;99359.94;;;9.61;76.68
70343;BME280;57767;42.068;24.752;2023-05-12T00:37:27;99351.38;;;9.59;77.29
70343;BME280;57767;42.068;24.752;2023-05-12T00:38:29;99358.31;;;9.60;76.95
70343;BME280;57767;42.068;24.752;2023-05-12T00:39:31;99363.50;;;9.53;77.21
70343;BME280;57767;42.068;24.752;2023-05-12T00:40:32;99360.19;;;9.45;77.33
70343;BME280;57767;42.068;24.752;2023-05-12T00:41:34;99340.22;;;9.36;77.79
70343;BME280;57767;42.068;24.752;2023-05-12T00:42:37;99359.72;;;9.41;77.94
70343;BME280;57767;42.068;24.752;2023-05-12T00:43:38;99357.09;;;9.41;77.28
70343;BME280;57767;42.068;24.752;2023-05-12T00:44:40;99362.44;;;9.48;77.41
70343;BME280;57767;42.068;24.752;2023-05-12T00:45:42;99362.63;;;9.46;77.69
70343;BME280;57767;42.068;24.752;2023-05-12T00:46:44;99364.25;;;9.47;77.56
70343;BME280;57767;42.068;24.752;2023-05-12T00:47:46;99369.34;;;9.49;77.62
70343;BME280;57767;42.068;24.752;2023-05-12T00:48:48;99357.34;;;9.46;76.88
70343;BME280;57767;42.068;24.752;2023-05-12T00:49:50;99362.00;;;9.44;77.07
70343;BME280;57767;42.068;24.752;2023-05-12T00:50:53;99366.25;;;9.45;77.51
70343;BME280;57767;42.068;24.752;2023-05-12T00:51:57;99367.25;;;9.44;77.12
70343;BME280;57767;42.068;24.752;2023-05-12T00:53:00;99363.63;;;9.45;77.10
70343;BME280;57767;42.068;24.752;2023-05-12T00:54:02;99369.91;;;9.44;77.78
70343;BME280;57767;42.068;24.752;2023-05-12T00:55:04;99363.00;;;9.43;77.62
70343;BME280;57767;42.068;24.752;2023-05-12T00:56:08;99373.53;;;9.43;77.68
70343;BME280;57767;42.068;24.752;2023-05-12T00:57:10;99365.44;;;9.45;77.68
70343;BME280;57767;42.068;24.752;2023-05-12T00:58:12;99366.91;;;9.47;78.30
70343;BME280;57767;42.068;24.752;2023-05-12T00:59:14;99354.81;;;9.38;77.46
70343;BME280;57767;42.068;24.752;2023-05-12T01:00:16;99373.91;;;9.40;78.15
70343;BME280;57767;42.068;24.752;2023-05-12T01:01:19;99371.03;;;9.35;77.68
70343;BME280;57767;42.068;24.752;2023-05-12T01:02:21;99367.75;;;9.33;78.79
70343;BME280;57767;42.068;24.752;2023-05-12T01:03:24;99373.84;;;9.33;78.35
70343;BME280;57767;42.068;24.752;2023-05-12T01:04:26;99363.69;;;9.30;78.26
70343;BME280;57767;42.068;24.752;2023-05-12T01:05:32;99366.94;;;9.32;78.39
70343;BME280;57767;42.068;24.752;2023-05-12T01:08:00;99366.41;;;9.37;78.14
70343;BME280;57767;42.068;24.752;2023-05-12T01:09:03;99360.72;;;9.40;78.15
70343;BME280;57767;42.068;24.752;2023-05-12T01:10:19;99355.59;;;9.32;78.41
70343;BME280;57767;42.068;24.752;2023-05-12T01:11:22;99353.59;;;9.34;78.55
70343;BME280;57767;42.068;24.752;2023-05-12T01:12:25;99366.59;;;9.36;78.96
70343;BME280;57767;42.068;24.752;2023-05-12T01:13:27;99365.13;;;9.33;78.34
70343;BME280;57767;42.068;24.752;2023-05-12T01:14:29;99367.00;;;9.39;78.79
70343;BME280;57767;42.068;24.752;2023-05-12T01:15:31;99360.53;;;9.42;78.74
70343;BME280;57767;42.068;24.752;2023-05-12T01:16:51;99372.16;;;9.47;78.70
70343;BME280;57767;42.068;24.752;2023-05-12T01:17:57;99373.81;;;9.48;79.08
70343;BME280;57767;42.068;24.752;2023-05-12T01:19:04;99364.25;;;9.47;78.37
70343;BME280;57767;42.068;24.752;2023-05-12T01:20:11;99365.25;;;9.46;78.34
70343;BME280;57767;42.068;24.752;2023-05-12T01:21:15;99365.50;;;9.51;79.08
70343;BME280;57767;42.068;24.752;2023-05-12T01:22:18;99369.78;;;9.52;79.47
70343;BME280;57767;42.068;24.752;2023-05-12T01:23:23;99368.75;;;9.53;78.43
70343;BME280;57767;42.068;24.752;2023-05-12T01:24:29;99367.13;;;9.52;78.57
70343;BME280;57767;42.068;24.752;2023-05-12T01:25:33;99364.75;;;9.57;78.84
70343;BME280;57767;42.068;24.752;2023-05-12T01:26:34;99364.13;;;9.55;78.38
70343;BME280;57767;42.068;24.752;2023-05-12T01:27:38;99368.41;;;9.56;78.75
70343;BME280;57767;42.068;24.752;2023-05-12T01:28:40;99368.44;;;9.63;79.23
70343;BME280;57767;42.068;24.752;2023-05-12T01:29:44;99364.25;;;9.68;79.22
70343;BME280;57767;42.068;24.752;2023-05-12T01:30:47;99366.88;;;9.68;78.82
70343;BME280;57767;42.068;24.752;2023-05-12T01:31:49;99367.34;;;9.72;78.42
70343;BME280;57767;42.068;24.752;2023-05-12T01:32:51;99364.72;;;9.79;78.49
70343;BME280;57767;42.068;24.752;2023-05-12T01:33:53;99364.72;;;9.79;78.14
70343;BME280;57767;42.068;24.752;2023-05-12T01:34:55;99358.47;;;9.80;77.90
70343;BME280;57767;42.068;24.752;2023-05-12T01:35:57;99355.81;;;9.80;78.51
70343;BME280;57767;42.068;24.752;2023-05-12T01:36:59;99348.16;;;9.85;77.61
70343;BME280;57767;42.068;24.752;2023-05-12T01:38:00;99359.56;;;9.92;77.51
70343;BME280;57767;42.068;24.752;2023-05-12T01:39:02;99353.91;;;9.95;78.12
70343;BME280;57767;42.068;24.752;2023-05-12T01:40:04;99351.72;;;9.98;78.00
70343;BME280;57767;42.068;24.752;2023-05-12T01:41:06;99351.31;;;10.01;77.72
70343;BME280;57767;42.068;24.752;2023-05-12T01:42:08;99354.78;;;10.02;77.77
70343;BME280;57767;42.068;24.752;2023-05-12T01:43:10;99364.56;;;10.08;77.17
70343;BME280;57767;42.068;24.752;2023-05-12T01:44:11;99359.91;;;10.10;76.72
70343;BME280;57767;42.068;24.752;2023-05-12T01:45:13;99343.22;;;10.03;76.64
70343;BME280;57767;42.068;24.752;2023-05-12T01:46:15;99365.19;;;10.10;76.52
70343;BME280;57767;42.068;24.752;2023-05-12T01:47:17;99356.22;;;10.04;75.97
70343;BME280;57767;42.068;24.752;2023-05-12T01:48:18;99366.31;;;10.01;77.14
70343;BME280;57767;42.068;24.752;2023-05-12T01:49:20;99357.19;;;9.97;76.58
70343;BME280;57767;42.068;24.752;2023-05-12T01:50:22;99351.72;;;9.98;76.59
70343;BME280;57767;42.068;24.752;2023-05-12T01:51:24;99360.47;;;10.05;77.01
70343;BME280;57767;42.068;24.752;2023-05-12T01:52:26;99364.38;;;10.10;76.57
70343;BME280;57767;42.068;24.752;2023-05-12T01:53:28;99363.94;;;10.06;76.46
70343;BME280;57767;42.068;24.752;2023-05-12T01:54:30;99360.81;;;9.96;76.18
70343;BME280;57767;42.068;24.752;2023-05-12T01:55:32;99358.41;;;10.01;76.38
70343;BME280;57767;42.068;24.752;2023-05-12T01:56:34;99360.69;;;10.04;76.37
70343;BME280;57767;42.068;24.752;2023-05-12T01:57:37;99362.94;;;10.07;76.25
70343;BME280;57767;42.068;24.752;2023-05-12T01:58:38;99360.25;;;10.00;77.14
70343;BME280;57767;42.068;24.752;2023-05-12T01:59:40;99365.13;;;10.03;77.16
70343;BME280;57767;42.068;24.752;2023-05-12T02:00:42;99358.38;;;9.94;76.58
70343;BME280;57767;42.068;24.752;2023-05-12T02:01:43;99357.81;;;9.99;76.92
70343;BME280;57767;42.068;24.752;2023-05-12T02:02:45;99352.75;;;10.04;76.69
70343;BME280;57767;42.068;24.752;2023-05-12T02:03:47;99357.84;;;10.05;76.92
70343;BME280;57767;42.068;24.752;2023-05-12T02:04:49;99364.38;;;10.10;77.19
70343;BME280;57767;42.068;24.752;2023-05-12T02:05:51;99352.38;;;10.07;76.27
70343;BME280;57767;42.068;24.752;2023-05-12T02:06:53;99364.00;;;10.13;76.47
70343;BME280;57767;42.068;24.752;2023-05-12T02:07:54;99350.50;;;10.01;76.08
70343;BME280;57767;42.068;24.752;2023-05-12T02:08:56;99359.09;;;10.10;76.43
70343;BME280;57767;42.068;24.752;2023-05-12T02:09:58;99364.09;;;9.98;75.93
70343;BME280;57767;42.068;24.752;2023-05-12T02:11:06;99359.03;;;10.03;76.58
70343;BME280;57767;42.068;24.752;2023-05-12T02:12:08;99358.47;;;10.07;76.35
70343;BME280;57767;42.068;24.752;2023-05-12T02:13:10;99359.72;;;10.12;76.55
70343;BME280;57767;42.068;24.752;2023-05-12T02:14:12;99352.63;;;10.12;76.56
70343;BME280;57767;42.068;24.752;2023-05-12T02:15:14;99357.09;;;10.12;75.90
70343;BME280;57767;42.068;24.752;2023-05-12T02:16:15;99354.00;;;10.08;76.70
70343;BME280;57767;42.068;24.752;2023-05-12T02:17:17;99361.94;;;10.08;76.66
70343;BME280;57767;42.068;24.752;2023-05-12T02:18:19;99360.09;;;10.09;77.01
70343;BME280;57767;42.068;24.752;2023-05-12T02:19:21;99356.84;;;10.06;76.88
70343;BME280;57767;42.068;24.752;2023-05-12T02:20:22;99360.28;;;10.07;76.99
70343;BME280;57767;42.068;24.752;2023-05-12T02:21:24;99352.75;;;10.04;77.58
70343;BME280;57767;42.068;24.752;2023-05-12T02:22:26;99348.25;;;9.98;77.17
70343;BME280;57767;42.068;24.752;2023-05-12T02:23:28;99340.34;;;9.98;76.96
70343;BME280;57767;42.068;24.752;2023-05-12T02:24:30;99351.13;;;10.03;76.95
70343;BME280;57767;42.068;24.752;2023-05-12T02:25:31;99350.72;;;9.99;76.92
70343;BME280;57767;42.068;24.752;2023-05-12T02:26:33;99348.25;;;9.98;77.12
70343;BME280;57767;42.068;24.752;2023-05-12T02:27:35;99356.59;;;10.01;77.14
70343;BME280;57767;42.068;24.752;2023-05-12T02:28:37;99356.66;;;10.08;76.60
70343;BME280;57767;42.068;24.752;2023-05-12T02:29:39;99353.00;;;10.09;76.79
70343;BME280;57767;42.068;24.752;2023-05-12T02:30:48;99357.28;;;10.10;76.28
70343;BME280;57767;42.068;24.752;2023-05-12T02:31:49;99359.66;;;10.05;76.24
70343;BME280;57767;42.068;24.752;2023-05-12T02:32:52;99348.50;;;10.03;76.62
70343;BME280;57767;42.068;24.752;2023-05-12T02:33:53;99346.63;;;9.97;76.71
70343;BME280;57767;42.068;24.752;2023-05-12T02:34:55;99352.56;;;10.05;77.38
70343;BME280;57767;42.068;24.752;2023-05-12T02:35:57;99354.66;;;10.10;75.78
70343;BME280;57767;42.068;24.752;2023-05-12T02:36:59;99353.00;;;10.09;77.20
70343;BME280;57767;42.068;24.752;2023-05-12T02:38:01;99353.38;;;10.06;76.40
70343;BME280;57767;42.068;24.752;2023-05-12T02:39:02;99355.41;;;10.04;76.34
70343;BME280;57767;42.068;24.752;2023-05-12T02:40:05;99319.34;;;9.83;76.23
70343;BME280;57767;42.068;24.752;2023-05-12T02:41:07;99352.47;;;9.92;76.31
70343;BME280;57767;42.068;24.752;2023-05-12T02:42:09;99356.19;;;9.98;76.85
70343;BME280;57767;42.068;24.752;2023-05-12T02:43:10;99352.03;;;9.89;76.89
70343;BME280;57767;42.068;24.752;2023-05-12T02:44:12;99351.66;;;9.92;77.44
70343;BME280;57767;42.068;24.752;2023-05-12T02:45:14;99355.28;;;9.91;76.64
70343;BME280;57767;42.068;24.752;2023-05-12T02:46:16;99358.91;;;9.83;77.47
70343;BME280;57767;42.068;24.752;2023-05-12T02:47:17;99359.72;;;9.84;77.49
70343;BME280;57767;42.068;24.752;2023-05-12T02:48:19;99362.22;;;9.92;76.84
70343;BME280;57767;42.068;24.752;2023-05-12T02:49:21;99357.72;;;9.86;76.92
70343;BME280;57767;42.068;24.752;2023-05-12T02:50:23;99356.50;;;9.88;76.79
70343;BME280;57767;42.068;24.752;2023-05-12T02:51:24;99354.25;;;9.85;76.91
70343;BME280;57767;42.068;24.752;2023-05-12T02:52:26;99359.72;;;9.84;77.46
70343;BME280;57767;42.068;24.752;2023-05-12T02:53:28;99355.88;;;9.86;77.63
70343;BME280;57767;42.068;24.752;2023-05-12T02:54:30;99356.00;;;9.78;77.11
70343;BME280;57767;42.068;24.752;2023-05-12T02:55:31;99360.53;;;9.84;77.59
70343;BME280;57767;42.068;24.752;2023-05-12T02:56:34;99361.72;;;9.82;78.09
70343;BME280;57767;42.068;24.752;2023-05-12T02:57:36;99344.63;;;9.78;77.38
70343;BME280;57767;42.068;24.752;2023-05-12T02:58:38;99365.81;;;9.84;77.42
70343;BME280;57767;42.068;24.752;2023-05-12T02:59:40;99357.44;;;9.81;77.89
70343;BME280;57767;42.068;24.752;2023-05-12T03:00:42;99370.19;;;9.77;78.04
70343;BME280;57767;42.068;24.752;2023-05-12T03:01:43;99375.91;;;9.81;77.87
70343;BME280;57767;42.068;24.752;2023-05-12T03:02:45;99372.28;;;9.82;78.40
70343;BME280;57767;42.068;24.752;2023-05-12T03:03:47;99367.44;;;9.85;78.03
70343;BME280;57767;42.068;24.752;2023-05-12T03:04:52;99379.03;;;9.91;77.96
70343;BME280;57767;42.068;24.752;2023-05-12T03:05:54;99371.53;;;9.88;78.38
70343;BME280;57767;42.068;24.752;2023-05-12T03:06:56;99375.59;;;9.90;78.06
70343;BME280;57767;42.068;24.752;2023-05-12T03:07:58;99372.13;;;9.90;77.58
70343;BME280;57767;42.068;24.752;2023-05-12T03:09:00;99368.25;;;9.86;78.26
70343;BME280;57767;42.068;24.752;2023-05-12T03:10:01;99360.53;;;9.84;78.35
70343;BME280;57767;42.068;24.752;2023-05-12T03:11:03;99376.41;;;9.91;77.95
70343;BME280;57767;42.068;24.752;2023-05-12T03:12:05;99376.84;;;9.94;77.66
70343;BME280;57767;42.068;24.752;2023-05-12T03:13:07;99373.81;;;9.97;77.74
70343;BME280;57767;42.068;24.752;2023-05-12T03:14:09;99371.19;;;9.97;77.03
70343;BME280;57767;42.068;24.752;2023-05-12T03:15:11;99373.00;;;9.97;77.25
70343;BME280;57767;42.068;24.752;2023-05-12T03:16:13;99375.22;;;9.93;77.51
70343;BME280;57767;42.068;24.752;2023-05-12T03:17:19;99367.28;;;9.93;76.98
70343;BME280;57767;42.068;24.752;2023-05-12T03:18:21;99373.44;;;10.00;77.01
70343;BME280;57767;42.068;24.752;2023-05-12T03:19:23;99373.00;;;9.97;76.89
70343;BME280;57767;42.068;24.752;2023-05-12T03:20:25;99373.56;;;9.92;77.26
70343;BME280;57767;42.068;24.752;2023-05-12T03:21:27;99380.28;;;9.95;76.41
70343;BME280;57767;42.068;24.752;2023-05-12T03:22:29;99381.13;;;9.95;77.05
70343;BME280;57767;42.068;24.752;2023-05-12T03:23:31;99369.94;;;9.93;76.85
70343;BME280;57767;42.068;24.752;2023-05-12T03:24:33;99375.66;;;9.97;77.38
70343;BME280;57767;42.068;24.752;2023-05-12T03:25:35;99384.41;;;10.04;76.63
70343;BME280;57767;42.068;24.752;2023-05-12T03:26:37;99388.06;;;10.03;76.78
70343;BME280;57767;42.068;24.752;2023-05-12T03:27:39;99385.41;;;10.03;76.44
70343;BME280;57767;42.068;24.752;2023-05-12T03:28:42;99377.09;;;9.99;77.02
70343;BME280;57767;42.068;24.752;2023-05-12T03:29:44;99392.34;;;10.04;76.96
70343;BME280;57767;42.068;24.752;2023-05-12T03:30:46;99381.97;;;10.02;76.93
70343;BME280;57767;42.068;24.752;2023-05-12T03:31:48;99384.22;;;10.05;77.40
70343;BME280;57767;42.068;24.752;2023-05-12T03:32:50;99379.41;;;10.09;77.40
70343;BME280;57767;42.068;24.752;2023-05-12T03:33:51;99385.31;;;10.11;77.97
70343;BME280;57767;42.068;24.752;2023-05-12T03:34:53;99387.94;;;10.11;77.19
70343;BME280;57767;42.068;24.752;2023-05-12T03:35:55;99381.03;;;10.10;77.17
70343;BME280;57767;42.068;24.752;2023-05-12T03:36:57;99377.75;;;10.08;77.12
70343;BME280;57767;42.068;24.752;2023-05-12T03:37:59;99379.44;;;10.16;76.90
70343;BME280;57767;42.068;24.752;2023-05-12T03:39:01;99388.06;;;10.24;77.11
70343;BME280;57767;42.068;24.752;2023-05-12T03:40:04;99390.72;;;10.24;77.62
70343;BME280;57767;42.068;24.752;2023-05-12T03:41:07;99394.63;;;10.14;77.45
70343;BME280;57767;42.068;24.752;2023-05-12T03:42:08;99394.63;;;10.14;77.31
70343;BME280;57767;42.068;24.752;2023-05-12T03:43:10;99398.06;;;10.07;77.52
70343;BME280;57767;42.068;24.752;2023-05-12T03:44:12;99396.59;;;10.05;76.75
70343;BME280;57767;42.068;24.752;2023-05-12T03:45:14;99399.72;;;10.15;76.75
70343;BME280;57767;42.068;24.752;2023-05-12T03:46:15;99399.72;;;10.15;76.56
70343;BME280;57767;42.068;24.752;2023-05-12T03:47:17;99404.66;;;10.18;77.39
70343;BME280;57767;42.068;24.752;2023-05-12T03:48:19;99399.63;;;10.23;77.17
70343;BME280;57767;42.068;24.752;2023-05-12T03:49:21;99400.03;;;10.27;76.90
70343;BME280;57767;42.068;24.752;2023-05-12T03:50:23;99393.38;;;10.31;77.17
70343;BME280;57767;42.068;24.752;2023-05-12T03:51:25;99411.09;;;10.37;76.98
70343;BME280;57767;42.068;24.752;2023-05-12T03:52:28;99408.88;;;10.40;76.61
70343;BME280;57767;42.068;24.752;2023-05-12T03:53:30;99409.69;;;10.41;76.35
70343;BME280;57767;42.068;24.752;2023-05-12T03:54:31;99404.84;;;10.45;77.14
70343;BME280;57767;42.068;24.752;2023-05-12T03:55:33;99416.84;;;10.47;77.25
70343;BME280;57767;42.068;24.752;2023-05-12T03:56:35;99404.47;;;10.48;76.87
70343;BME280;57767;42.068;24.752;2023-05-12T03:57:37;99410.97;;;10.52;76.63
70343;BME280;57767;42.068;24.752;2023-05-12T03:58:39;99407.94;;;10.55;76.40
70343;BME280;57767;42.068;24.752;2023-05-12T03:59:40;99406.13;;;10.55;76.27
70343;BME280;57767;42.068;24.752;2023-05-12T04:00:43;99411.84;;;10.59;76.47
70343;BME280;57767;42.068;24.752;2023-05-12T04:01:47;99412.28;;;10.62;76.40
70343;BME280;57767;42.068;24.752;2023-05-12T04:02:49;99413.09;;;10.63;76.38
70343;BME280;57767;42.068;24.752;2023-05-12T04:03:51;99413.69;;;10.65;76.21
70343;BME280;57767;42.068;24.752;2023-05-12T04:04:53;99419.41;;;10.68;75.57
70343;BME280;57767;42.068;24.752;2023-05-12T04:06:01;99416.38;;;10.71;75.14
70343;BME280;57767;42.068;24.752;2023-05-12T04:07:03;99416.19;;;10.73;75.84
70343;BME280;57767;42.068;24.752;2023-05-12T04:08:05;99413.53;;;10.73;75.02
70343;BME280;57767;42.068;24.752;2023-05-12T04:09:06;99420.47;;;10.74;75.09
70343;BME280;57767;42.068;24.752;2023-05-12T04:10:08;99413.94;;;10.76;75.44
70343;BME280;57767;42.068;24.752;2023-05-12T04:11:10;99414.16;;;10.75;75.49
70343;BME280;57767;42.068;24.752;2023-05-12T04:12:12;99413.34;;;10.74;75.37
70343;BME280;57767;42.068;24.752;2023-05-12T04:13:14;99419.47;;;10.75;74.83
70343;BME280;57767;42.068;24.752;2023-05-12T04:14:16;99406.66;;;10.78;74.37
70343;BME280;57767;42.068;24.752;2023-05-12T04:15:18;99413.38;;;10.81;74.86
70343;BME280;57767;42.068;24.752;2023-05-12T04:16:19;99415.25;;;10.87;74.29
70343;BME280;57767;42.068;24.752;2023-05-12T04:17:21;99419.31;;;10.90;73.95
70343;BME280;57767;42.068;24.752;2023-05-12T04:18:24;99419.13;;;10.91;74.80
70343;BME280;57767;42.068;24.752;2023-05-12T04:19:27;99415.25;;;10.94;73.88
70343;BME280;57767;42.068;24.752;2023-05-12T04:20:28;99417.94;;;11.00;73.41
70343;BME280;57767;42.068;24.752;2023-05-12T04:21:30;99415.69;;;10.97;73.62
70343;BME280;57767;42.068;24.752;2023-05-12T04:22:33;99413.69;;;10.99;74.30
70343;BME280;57767;42.068;24.752;2023-05-12T04:23:35;99407.38;;;11.00;74.68
70343;BME280;57767;42.068;24.752;2023-05-12T04:24:37;99407.16;;;11.02;74.55
70343;BME280;57767;42.068;24.752;2023-05-12T04:25:40;99414.69;;;11.05;73.14
70343;BME280;57767;42.068;24.752;2023-05-12T04:26:42;99411.47;;;11.09;73.32
70343;BME280;57767;42.068;24.752;2023-05-12T04:27:43;99415.97;;;11.16;72.63
70343;BME280;57767;42.068;24.752;2023-05-12T04:28:48;99411.69;;;11.14;72.55
70343;BME280;57767;42.068;24.752;2023-05-12T04:29:49;99408.03;;;11.09;72.48
70343;BME280;57767;42.068;24.752;2023-05-12T04:30:52;99408.03;;;11.16;72.46
70343;BME280;57767;42.068;24.752;2023-05-12T04:31:54;99416.38;;;11.19;73.33
70343;BME280;57767;42.068;24.752;2023-05-12T04:32:56;99410.91;;;11.21;73.42
70343;BME280;57767;42.068;24.752;2023-05-12T04:33:58;99408.66;;;11.18;73.52
70343;BME280;57767;42.068;24.752;2023-05-12T04:34:59;99398.91;;;11.18;73.01
70343;BME280;57767;42.068;24.752;2023-05-12T04:36:01;99403.78;;;11.21;73.41
70343;BME280;57767;42.068;24.752;2023-05-12T04:37:03;99409.09;;;11.28;72.71
70343;BME280;57767;42.068;24.752;2023-05-12T04:38:05;99398.13;;;11.31;72.96
70343;BME280;57767;42.068;24.752;2023-05-12T04:39:07;99404.66;;;11.35;73.44
70343;BME280;57767;42.068;24.752;2023-05-12T04:40:10;99402.81;;;11.35;72.76
70343;BME280;57767;42.068;24.752;2023-05-12T04:41:11;99401.19;;;11.41;72.64
70343;BME280;57767;42.068;24.752;2023-05-12T04:42:13;99400.19;;;11.42;71.84
70343;BME280;57767;42.068;24.752;2023-05-12T04:43:15;99403.81;;;11.28;72.04
70343;BME280;57767;42.068;24.752;2023-05-12T04:44:19;99406.44;;;11.28;72.13
70343;BME280;57767;42.068;24.752;2023-05-12T04:45:22;99407.25;;;11.28;72.40
70343;BME280;57767;42.068;24.752;2023-05-12T04:46:24;99405.44;;;11.29;72.50
70343;BME280;57767;42.068;24.752;2023-05-12T04:47:26;99406.25;;;11.23;73.14
70343;BME280;57767;42.068;24.752;2023-05-12T04:48:28;99404.00;;;11.20;73.50
70343;BME280;57767;42.068;24.752;2023-05-12T04:49:30;99398.50;;;11.28;73.43
70343;BME280;57767;42.068;24.752;2023-05-12T04:50:32;99408.50;;;11.32;73.41
70343;BME280;57767;42.068;24.752;2023-05-12T04:51:34;99409.75;;;11.36;73.34
70343;BME280;57767;42.068;24.752;2023-05-12T04:52:42;99408.13;;;11.42;73.21
70343;BME280;57767;42.068;24.752;2023-05-12T04:53:44;99406.50;;;11.47;73.08
70343;BME280;57767;42.068;24.752;2023-05-12T04:54:46;99407.53;;;11.53;72.63
70343;BME280;57767;42.068;24.752;2023-05-12T04:55:48;99417.50;;;11.58;72.27
70343;BME280;57767;42.068;24.752;2023-05-12T04:56:50;99415.91;;;11.63;71.86
70343;BME280;57767;42.068;24.752;2023-05-12T04:57:52;99409.19;;;11.61;71.73
70343;BME280;57767;42.068;24.752;2023-05-12T04:58:54;99416.94;;;11.62;71.54
70343;BME280;57767;42.068;24.752;2023-05-12T04:59:56;99418.75;;;11.68;71.69
70343;BME280;57767;42.068;24.752;2023-05-12T05:00:59;99413.84;;;11.65;71.45
70343;BME280;57767;42.068;24.752;2023-05-12T05:02:01;99420.19;;;11.64;71.66
70343;BME280;57767;42.068;24.752;2023-05-12T05:03:03;99407.75;;;11.52;71.01
70343;BME280;57767;42.068;24.752;2023-05-12T05:04:06;99413.84;;;11.59;71.46
70343;BME280;57767;42.068;24.752;2023-05-12T05:05:08;99413.06;;;11.65;71.60
70343;BME280;57767;42.068;24.752;2023-05-12T05:06:10;99420.81;;;11.73;71.39
70343;BME280;57767;42.068;24.752;2023-05-12T05:07:11;99420.44;;;11.76;71.16
70343;BME280;57767;42.068;24.752;2023-05-12T05:08:13;99422.47;;;11.80;71.04
70343;BME280;57767;42.068;24.752;2023-05-12T05:09:15;99418.81;;;11.81;70.61
70343;BME280;57767;42.068;24.752;2023-05-12T05:10:17;99417.38;;;11.79;69.87
70343;BME280;57767;42.068;24.752;2023-05-12T05:11:19;99415.31;;;11.74;70.11
70343;BME280;57767;42.068;24.752;2023-05-12T05:12:22;99418.78;;;11.75;70.44
70343;BME280;57767;42.068;24.752;2023-05-12T05:13:25;99414.53;;;11.80;70.01
70343;BME280;57767;42.068;24.752;2023-05-12T05:14:26;99410.84;;;11.75;69.97
70343;BME280;57767;42.068;24.752;2023-05-12T05:15:28;99409.84;;;11.76;69.78
70343;BME280;57767;42.068;24.752;2023-05-12T05:16:30;99411.25;;;11.78;70.46
70343;BME280;57767;42.068;24.752;2023-05-12T05:17:32;99411.50;;;11.77;70.67
70343;BME280;57767;42.068;24.752;2023-05-12T05:18:34;99380.09;;;11.61;70.03
70343;BME280;57767;42.068;24.752;2023-05-12T05:19:36;99410.69;;;11.76;70.42
70343;BME280;57767;42.068;24.752;2023-05-12T05:20:52;99410.19;;;11.66;71.26
70343;BME280;57767;42.068;24.752;2023-05-12T05:21:59;99415.09;;;11.69;70.60
70343;BME280;57767;42.068;24.752;2023-05-12T05:23:01;99412.06;;;11.72;71.09
70343;BME280;57767;42.068;24.752;2023-05-12T05:24:02;99415.72;;;11.71;71.25
70343;BME280;57767;42.068;24.752;2023-05-12T05:25:05;99415.97;;;11.76;70.28
70343;BME280;57767;42.068;24.752;2023-05-12T05:26:07;99423.66;;;11.71;70.64
70343;BME280;57767;42.068;24.752;2023-05-12T05:27:09;99421.44;;;11.75;71.15
70343;BME280;57767;42.068;24.752;2023-05-12T05:28:11;99428.97;;;11.78;70.98
70343;BME280;57767;42.068;24.752;2023-05-12T05:29:13;99423.09;;;11.76;70.91